Time;durP1;ratioP1;P1;durP2;ratioP2;P2;SDS_P1;SDS_P2;PMS_P1;PMS_P2;Temp;Humidity;BMP_temperature;BMP_pressure;BME280_temperature;BME280_humidity;BME280_pressure;Samples;Min_cycle;Max_cycle;Signal;HPM_P1;HPM_P2
2024/04/10 00:02:01;;;;;;;20.98;18.83;;;;;;;;;;10752334;26;20019;-66
2024/04/10 00:06:55;;;;;;;23.80;18.60;;;;;;;;;;10759728;26;20328;-66
2024/04/10 00:11:49;;;;;;;19.88;16.88;;;;;;;;;;10759232;26;20004;-65
2024/04/10 00:16:44;;;;;;;22.85;16.77;;;;;;;;;;10758918;26;20004;-66
2024/04/10 00:21:38;;;;;;;21.55;18.55;;;;;;;;;;10759959;26;20004;-66
2024/04/10 00:26:33;;;;;;;20.65;18.48;;;;;;;;;;10760173;26;20023;-65
2024/04/10 00:31:28;;;;;;;19.08;17.05;;;;;;;;;;10758316;26;20321;-66
2024/04/10 00:36:23;;;;;;;26.25;16.58;;;;;;;;;;10758475;26;20016;-66
2024/04/10 00:41:18;;;;;;;19.10;14.98;;;;;;;;;;10744760;26;20036;-66
2024/04/10 00:46:19;;;;;;;17.95;15.65;;;;;;;;;;10760396;26;20045;-67
2024/04/10 00:51:20;;;;;;;19.02;15.73;;;;;;;;;;10759576;26;20015;-66
2024/04/10 00:56:16;;;;;;;18.50;13.80;;;;;;;;;;10752383;26;20051;-66
2024/04/10 01:01:13;;;;;;;18.42;14.05;;;;;;;;;;10757602;26;20350;-66
2024/04/10 01:06:09;;;;;;;19.30;13.23;;;;;;;;;;10756076;26;20015;-66
2024/04/10 01:11:05;;;;;;;23.38;13.15;;;;;;;;;;10739369;26;20004;-66
2024/04/10 01:15:59;;;;;;;20.83;15.82;;;;;;;;;;10750543;26;20010;-66
2024/04/10 01:20:54;;;;;;;21.50;18.73;;;;;;;;;;10749174;26;20429;-66
2024/04/10 01:25:48;;;;;;;22.77;19.25;;;;;;;;;;10757794;26;20077;-66
2024/04/10 01:30:42;;;;;;;29.80;20.13;;;;;;;;;;10750032;26;20016;-67
2024/04/10 01:35:36;;;;;;;24.75;20.35;;;;;;;;;;10763113;26;20032;-66
2024/04/10 01:40:31;;;;;;;34.30;20.98;;;;;;;;;;10755880;26;20036;-65
2024/04/10 01:45:26;;;;;;;29.40;19.58;;;;;;;;;;10765182;26;20444;-65
2024/04/10 01:50:20;;;;;;;29.85;21.25;;;;;;;;;;10756184;26;20059;-65
2024/04/10 01:55:15;;;;;;;24.90;21.88;;;;;;;;;;10762956;26;20014;-65
2024/04/10 02:00:10;;;;;;;23.98;21.40;;;;;;;;;;10764713;26;20307;-66
2024/04/10 02:05:05;;;;;;;31.00;25.05;;;;;;;;;;10762923;26;19997;-68
2024/04/10 02:09:59;;;;;;;31.75;26.08;;;;;;;;;;10765662;26;20019;-68
2024/04/10 02:14:52;;;;;;;34.40;30.27;;;;;;;;;;10758723;26;20440;-68
2024/04/10 02:19:49;;;;;;;34.10;30.30;;;;;;;;;;10762421;26;20015;-68
2024/04/10 02:24:44;;;;;;;35.63;30.98;;;;;;;;;;10765431;26;20097;-68
2024/04/10 02:29:38;;;;;;;36.75;30.83;;;;;;;;;;10755662;26;20005;-67
2024/04/10 02:34:34;;;;;;;33.33;29.83;;;;;;;;;;10764392;26;20022;-66
2024/04/10 02:39:28;;;;;;;34.58;28.85;;;;;;;;;;10761837;26;20004;-66
2024/04/10 02:44:23;;;;;;;32.72;27.58;;;;;;;;;;10763609;26;20440;-66
2024/04/10 02:49:16;;;;;;;33.20;29.52;;;;;;;;;;10759132;26;20004;-66
2024/04/10 02:54:11;;;;;;;34.00;27.33;;;;;;;;;;10764472;26;20035;-66
2024/04/10 02:59:05;;;;;;;32.75;27.33;;;;;;;;;;10762310;26;20000;-66
2024/04/10 03:04:00;;;;;;;28.23;25.27;;;;;;;;;;10761307;26;20012;-66
2024/04/10 03:08:54;;;;;;;33.33;24.60;;;;;;;;;;10755111;26;20325;-66
2024/04/10 03:13:48;;;;;;;28.15;22.75;;;;;;;;;;10762437;26;20004;-66
2024/04/10 03:18:42;;;;;;;26.02;23.27;;;;;;;;;;10756036;26;20073;-66
2024/04/10 03:23:37;;;;;;;35.08;23.02;;;;;;;;;;10761287;26;20015;-66
2024/04/10 03:28:31;;;;;;;21.95;19.75;;;;;;;;;;10762168;26;20000;-66
2024/04/10 03:33:26;;;;;;;20.20;18.17;;;;;;;;;;10762529;26;20004;-66
2024/04/10 03:38:19;;;;;;;23.58;19.48;;;;;;;;;;10753911;26;20019;-65
2024/04/10 03:43:14;;;;;;;18.58;16.48;;;;;;;;;;10756424;26;20004;-66
2024/04/10 03:48:08;;;;;;;18.95;17.05;;;;;;;;;;10758889;26;20019;-66
2024/04/10 03:53:07;;;;;;;18.48;15.02;;;;;;;;;;10760224;26;20120;-68
2024/04/10 03:58:01;;;;;;;14.60;13.10;;;;;;;;;;10759626;26;20008;-66
2024/04/10 04:02:55;;;;;;;11.80;10.60;;;;;;;;;;10759913;26;19997;-66
2024/04/10 04:07:50;;;;;;;9.00;8.07;;;;;;;;;;10761995;26;20016;-67
2024/04/10 04:12:44;;;;;;;7.10;5.18;;;;;;;;;;10780563;26;20004;-67
2024/04/10 04:17:38;;;;;;;9.13;4.40;;;;;;;;;;10761572;26;20004;-68
2024/04/10 04:22:33;;;;;;;5.30;2.83;;;;;;;;;;10760098;26;20012;-66
2024/04/10 04:27:32;;;;;;;5.32;2.40;;;;;;;;;;10760981;26;20081;-66
2024/04/10 04:32:26;;;;;;;;;;;;;;;;;;10760454;26;20004;-67
2024/04/10 04:37:20;;;;;;;2.17;1.88;;;;;;;;;;10762146;26;19933;-67
2024/04/10 04:42:16;;;;;;;2.85;2.03;;;;;;;;;;10758966;26;20004;-67
2024/04/10 04:47:10;;;;;;;1.58;1.48;;;;;;;;;;10761504;26;20004;-68
2024/04/10 04:52:07;;;;;;;1.58;1.48;;;;;;;;;;10757671;26;20008;-67
2024/04/10 04:57:02;;;;;;;2.10;1.92;;;;;;;;;;10753474;26;20089;-68
2024/04/10 05:01:55;;;;;;;5.40;1.98;;;;;;;;;;10749539;26;20360;-69
2024/04/10 05:06:49;;;;;;;2.25;1.60;;;;;;;;;;10782281;26;20015;-67
2024/04/10 05:11:42;;;;;;;2.95;1.60;;;;;;;;;;10750769;26;20007;-67
2024/04/10 05:16:37;;;;;;;2.88;1.40;;;;;;;;;;10752231;26;20478;-67
2024/04/10 05:21:32;;;;;;;2.03;1.75;;;;;;;;;;10759325;26;20016;-67
2024/04/10 05:26:29;;;;;;;1.75;1.40;;;;;;;;;;10759662;26;20018;-68
2024/04/10 05:31:23;;;;;;;1.38;1.13;;;;;;;;;;10752093;26;20024;-68
2024/04/10 05:36:17;;;;;;;1.83;0.93;;;;;;;;;;10748244;26;20348;-67
2024/04/10 05:41:11;;;;;;;2.35;2.15;;;;;;;;;;10748910;26;20081;-67
2024/04/10 05:46:10;;;;;;;1.40;1.10;;;;;;;;;;10757799;26;20015;-68
2024/04/10 05:51:06;;;;;;;0.93;0.90;;;;;;;;;;10761251;26;20019;-67
2024/04/10 05:56:06;;;;;;;1.15;0.90;;;;;;;;;;10761206;26;20019;-68
2024/04/10 06:01:24;;;;;;;1.33;1.23;;;;;;;;;;10737420;26;20082;-68
2024/04/10 06:06:19;;;;;;;1.33;1.27;;;;;;;;;;10759549;26;20041;-73
2024/04/10 06:11:14;;;;;;;8.32;2.47;;;;;;;;;;10765061;26;20029;-66
2024/04/10 06:16:09;;;;;;;5.82;4.50;;;;;;;;;;10772575;26;20023;-66
2024/04/10 06:21:05;;;;;;;25.88;20.30;;;;;;;;;;10764904;26;20016;-67
2024/04/10 06:25:59;;;;;;;4.82;3.95;;;;;;;;;;10754319;26;20005;-67
2024/04/10 06:31:00;;;;;;;1.10;1.10;;;;;;;;;;10743663;26;20004;-66
2024/04/10 06:35:58;;;;;;;4.40;2.05;;;;;;;;;;10766786;26;20029;-68
2024/04/10 06:41:15;;;;;;;1.08;1.08;;;;;;;;;;10765851;26;20004;-66
2024/04/10 06:46:09;;;;;;;1.20;1.08;;;;;;;;;;10766014;26;20008;-66
2024/04/10 06:51:06;;;;;;;1.50;1.20;;;;;;;;;;10765394;26;20015;-66
2024/04/10 06:56:01;;;;;;;3.60;1.75;;;;;;;;;;10766216;26;20028;-66
2024/04/10 07:00:58;;;;;;;1.35;1.25;;;;;;;;;;10756896;26;20018;-67
2024/04/10 07:06:12;;;;;;;5.57;1.25;;;;;;;;;;10765581;26;20004;-67
2024/04/10 07:11:11;;;;;;;2.33;1.80;;;;;;;;;;10767132;26;20448;-66
2024/04/10 07:16:09;;;;;;;2.08;1.30;;;;;;;;;;10779702;26;20086;-67
2024/04/10 07:21:06;;;;;;;1.42;1.30;;;;;;;;;;10765470;26;20004;-67
2024/04/10 07:26:14;;;;;;;1.92;1.80;;;;;;;;;;10765349;26;20086;-66
2024/04/10 07:31:11;;;;;;;2.70;1.63;;;;;;;;;;10763206;26;20330;-68
2024/04/10 07:36:18;;;;;;;3.03;1.55;;;;;;;;;;10764728;26;20012;-66
2024/04/10 07:41:12;;;;;;;2.35;2.03;;;;;;;;;;10762544;26;20004;-66
2024/04/10 07:46:07;;;;;;;9.27;2.20;;;;;;;;;;10764424;26;20528;-66
2024/04/10 07:51:04;;;;;;;3.28;2.60;;;;;;;;;;10763904;26;20074;-66
2024/04/10 07:55:57;;;;;;;2.55;2.35;;;;;;;;;;10759254;26;20004;-66
2024/04/10 08:00:56;;;;;;;4.38;3.78;;;;;;;;;;10763920;26;20452;-65
2024/04/10 08:05:51;;;;;;;2.55;2.35;;;;;;;;;;10763912;26;20020;-67
2024/04/10 08:10:46;;;;;;;4.25;2.35;;;;;;;;;;10760739;26;20004;-66
2024/04/10 08:15:43;;;;;;;2.25;1.55;;;;;;;;;;10747804;26;20076;-68
2024/04/10 08:20:37;;;;;;;1.50;1.40;;;;;;;;;;10763623;26;20460;-66
2024/04/10 08:25:32;;;;;;;1.55;1.40;;;;;;;;;;10763549;26;20004;-66
2024/04/10 08:30:27;;;;;;;3.15;2.67;;;;;;;;;;10760751;26;20078;-66
2024/04/10 08:35:22;;;;;;;2.40;1.80;;;;;;;;;;10762183;26;20004;-65
2024/04/10 08:40:17;;;;;;;2.40;1.10;;;;;;;;;;10761950;26;20498;-67
2024/04/10 08:45:13;;;;;;;1.08;0.98;;;;;;;;;;10761454;26;20447;-65
2024/04/10 08:50:10;;;;;;;1.67;1.27;;;;;;;;;;10762326;26;20019;-66
2024/04/10 08:55:06;;;;;;;1.00;0.93;;;;;;;;;;10762036;26;20012;-65
2024/04/10 09:00:01;;;;;;;1.83;1.10;;;;;;;;;;10757264;26;20004;-65
2024/04/10 09:04:56;;;;;;;1.27;1.20;;;;;;;;;;10761900;26;20577;-66
2024/04/10 09:09:52;;;;;;;1.52;1.42;;;;;;;;;;10761276;26;20040;-67
2024/04/10 09:14:46;;;;;;;2.38;2.08;;;;;;;;;;10780517;26;20446;-65
2024/04/10 09:19:40;;;;;;;1.70;1.60;;;;;;;;;;10760820;26;20004;-66
2024/04/10 09:24:38;;;;;;;2.45;2.20;;;;;;;;;;10761122;26;20019;-67
2024/04/10 09:29:33;;;;;;;2.70;1.63;;;;;;;;;;10758325;26;20449;-65
2024/04/10 09:34:28;;;;;;;2.25;1.70;;;;;;;;;;10760790;26;20504;-66
2024/04/10 09:39:22;;;;;;;3.08;1.92;;;;;;;;;;10760719;26;20015;-66
2024/04/10 09:44:21;;;;;;;1.58;1.48;;;;;;;;;;10760768;26;20015;-66
2024/04/10 09:49:16;;;;;;;2.38;1.80;;;;;;;;;;10760038;26;20031;-66
2024/04/10 09:54:12;;;;;;;1.45;1.25;;;;;;;;;;10749729;26;20048;-65
2024/04/10 09:59:09;;;;;;;3.63;1.17;;;;;;;;;;10766710;26;20036;-66
2024/04/10 10:04:03;;;;;;;1.10;0.90;;;;;;;;;;10766639;26;20036;-65
2024/04/10 10:08:59;;;;;;;3.75;1.50;;;;;;;;;;10766922;26;20004;-65
2024/04/10 10:14:19;;;;;;;3.97;2.10;;;;;;;;;;10786406;26;20012;-65
2024/04/10 10:19:20;;;;;;;1.67;1.30;;;;;;;;;;10749508;26;20015;-65
2024/04/10 10:24:14;;;;;;;1.25;0.85;;;;;;;;;;10765778;26;20008;-66
2024/04/10 10:29:09;;;;;;;0.80;0.80;;;;;;;;;;10754881;26;20009;-65
2024/04/10 10:34:13;;;;;;;1.00;1.00;;;;;;;;;;10760436;26;20437;-65
2024/04/10 10:39:10;;;;;;;1.33;0.77;;;;;;;;;;10763532;26;20024;-66
2024/04/10 10:44:06;;;;;;;1.95;1.48;;;;;;;;;;10765663;26;20016;-66
2024/04/10 10:49:02;;;;;;;1.23;1.17;;;;;;;;;;10765173;26;20081;-66
2024/04/10 10:53:56;;;;;;;0.95;0.95;;;;;;;;;;10766015;26;20085;-66
2024/04/10 10:58:52;;;;;;;0.80;0.80;;;;;;;;;;10762005;26;20148;-66
2024/04/10 11:03:47;;;;;;;1.98;1.75;;;;;;;;;;10763919;26;20008;-66
2024/04/10 11:08:41;;;;;;;0.88;0.77;;;;;;;;;;10760576;26;20077;-66
2024/04/10 11:13:36;;;;;;;0.90;0.90;;;;;;;;;;10768336;26;20004;-66
2024/04/10 11:18:31;;;;;;;2.42;0.90;;;;;;;;;;10761851;26;20367;-66
2024/04/10 11:23:28;;;;;;;1.95;0.80;;;;;;;;;;10763497;26;20016;-66
2024/04/10 11:28:23;;;;;;;6.10;0.70;;;;;;;;;;10764628;26;20351;-67
2024/04/10 11:33:17;;;;;;;0.63;0.63;;;;;;;;;;10762984;26;20004;-66
2024/04/10 11:38:12;;;;;;;4.13;1.00;;;;;;;;;;10758148;26;20284;-66
2024/04/10 11:43:06;;;;;;;0.80;0.77;;;;;;;;;;10762282;26;20529;-67
2024/04/10 11:47:59;;;;;;;1.15;0.93;;;;;;;;;;10761375;26;20012;-66
2024/04/10 11:52:54;;;;;;;1.27;1.05;;;;;;;;;;10746488;26;20011;-66
2024/04/10 11:57:48;;;;;;;1.40;1.10;;;;;;;;;;10757993;26;20015;-67
2024/04/10 12:02:43;;;;;;;7.20;1.33;;;;;;;;;;10761418;26;20458;-67
2024/04/10 12:07:38;;;;;;;2.45;0.95;;;;;;;;;;10746639;26;20019;-66
2024/04/10 12:12:32;;;;;;;1.00;1.00;;;;;;;;;;10754939;26;20000;-67
2024/04/10 12:17:29;;;;;;;0.75;0.75;;;;;;;;;;10756168;26;20078;-67
2024/04/10 12:22:25;;;;;;;0.90;0.80;;;;;;;;;;10753612;26;20000;-64
2024/04/10 12:27:19;;;;;;;1.77;1.05;;;;;;;;;;10750768;26;20472;-67
2024/04/10 12:32:14;;;;;;;0.82;0.82;;;;;;;;;;10745062;26;20004;-66
2024/04/10 12:42:20;;;;;;;0.80;0.80;;;;;;;;;;10751170;26;20475;-65
2024/04/10 12:47:14;;;;;;;2.03;0.82;;;;;;;;;;10758205;26;20075;-66
2024/04/10 12:52:09;;;;;;;0.80;0.80;;;;;;;;;;10751488;26;20004;-66
2024/04/10 12:57:04;;;;;;;2.15;0.73;;;;;;;;;;10758522;26;20004;-67
2024/04/10 13:01:59;;;;;;;2.05;1.15;;;;;;;;;;10754537;26;20004;-67
2024/04/10 13:06:53;;;;;;;3.78;0.80;;;;;;;;;;10756220;26;20433;-66
2024/04/10 13:11:46;;;;;;;0.93;0.93;;;;;;;;;;10764023;26;20145;-66
2024/04/10 13:16:40;;;;;;;0.85;0.70;;;;;;;;;;10753786;26;20425;-65
2024/04/10 13:21:34;;;;;;;0.75;0.75;;;;;;;;;;10753822;26;20016;-66
2024/04/10 13:26:29;;;;;;;2.58;0.90;;;;;;;;;;10755616;26;20366;-66
2024/04/10 13:31:24;;;;;;;2.10;1.38;;;;;;;;;;10752274;26;20032;-66
2024/04/10 13:36:20;;;;;;;1.40;1.00;;;;;;;;;;10755843;26;20070;-66
2024/04/10 13:41:15;;;;;;;1.00;0.90;;;;;;;;;;10760700;26;20004;-67
2024/04/10 13:46:10;;;;;;;2.67;1.27;;;;;;;;;;10757902;26;20044;-66
2024/04/10 13:51:06;;;;;;;2.25;1.55;;;;;;;;;;10759938;26;20011;-65
2024/04/10 13:56:11;;;;;;;4.32;2.65;;;;;;;;;;10753724;26;20004;-65
2024/04/10 14:01:35;;;;;;;5.15;2.25;;;;;;;;;;10742757;26;20014;-66
2024/04/10 14:06:30;;;;;;;3.70;2.42;;;;;;;;;;10750709;26;20016;-66
2024/04/10 14:11:25;;;;;;;2.47;2.15;;;;;;;;;;10753788;26;20681;-66
2024/04/10 14:16:20;;;;;;;2.50;2.30;;;;;;;;;;10758986;26;20022;-66
2024/04/10 14:21:14;;;;;;;3.70;2.08;;;;;;;;;;10760577;26;20004;-66
2024/04/10 14:26:12;;;;;;;2.88;2.35;;;;;;;;;;10760925;26;20032;-65
2024/04/10 14:31:09;;;;;;;2.75;2.45;;;;;;;;;;10757740;26;20505;-67
2024/04/10 14:36:05;;;;;;;2.60;2.40;;;;;;;;;;10757412;26;20000;-65
2024/04/10 14:41:00;;;;;;;3.35;3.08;;;;;;;;;;10759587;26;20527;-65
2024/04/10 14:45:54;;;;;;;2.63;2.42;;;;;;;;;;10756611;26;20424;-66
2024/04/10 14:51:01;;;;;;;2.72;2.45;;;;;;;;;;10756711;26;20443;-66
2024/04/10 14:56:07;;;;;;;4.18;3.78;;;;;;;;;;10754085;26;20337;-66
2024/04/10 15:01:21;;;;;;;5.95;2.53;;;;;;;;;;10752850;26;20000;-66
2024/04/10 15:06:15;;;;;;;3.05;2.75;;;;;;;;;;10760491;26;20019;-66
2024/04/10 15:11:42;;;;;;;2.42;2.20;;;;;;;;;;10745474;26;20000;-65
2024/04/10 15:16:36;;;;;;;2.65;2.45;;;;;;;;;;10752407;26;20008;-65
2024/04/10 15:21:31;;;;;;;2.25;2.05;;;;;;;;;;10751063;26;20016;-66
2024/04/10 15:26:25;;;;;;;2.97;2.45;;;;;;;;;;10751372;26;20004;-65
2024/04/10 15:31:20;;;;;;;3.95;2.45;;;;;;;;;;10758846;26;20004;-66
2024/04/10 15:36:16;;;;;;;2.58;2.38;;;;;;;;;;10762216;26;20031;-66
2024/04/10 15:41:11;;;;;;;5.90;3.08;;;;;;;;;;10749648;26;20400;-67
2024/04/10 15:46:11;;;;;;;3.60;2.20;;;;;;;;;;10759431;26;20013;-66
2024/04/10 15:51:32;;;;;;;4.22;2.60;;;;;;;;;;10745790;26;20016;-66
2024/04/10 15:56:26;;;;;;;2.90;2.70;;;;;;;;;;10760474;26;20000;-66
2024/04/10 16:01:20;;;;;;;2.70;2.50;;;;;;;;;;10762343;26;20000;-66
2024/04/10 16:06:17;;;;;;;3.80;2.35;;;;;;;;;;10760367;26;20000;-65
2024/04/10 16:11:19;;;;;;;3.45;3.00;;;;;;;;;;10767666;26;19999;-67
2024/04/10 16:16:17;;;;;;;2.65;2.45;;;;;;;;;;10771286;26;20004;-66
2024/04/10 16:21:14;;;;;;;4.10;2.40;;;;;;;;;;10762215;26;20000;-66
2024/04/10 16:26:31;;;;;;;3.17;2.60;;;;;;;;;;10752386;26;20468;-66
2024/04/10 16:31:25;;;;;;;2.40;2.20;;;;;;;;;;10758850;26;20032;-66
2024/04/10 16:36:21;;;;;;;5.05;2.90;;;;;;;;;;10752043;26;20036;-66
2024/04/10 16:41:16;;;;;;;3.28;2.97;;;;;;;;;;10751321;26;20089;-66
2024/04/10 16:46:11;;;;;;;6.63;3.22;;;;;;;;;;10759207;26;20010;-66
2024/04/10 16:51:07;;;;;;;3.05;2.75;;;;;;;;;;10758035;26;20077;-66
2024/04/10 16:56:02;;;;;;;3.63;2.92;;;;;;;;;;10753164;26;20016;-66
2024/04/10 17:01:06;;;;;;;3.15;2.35;;;;;;;;;;10737387;26;20004;-65
2024/04/10 17:06:06;;;;;;;3.13;2.83;;;;;;;;;;10755899;26;20019;-66
2024/04/10 17:11:01;;;;;;;7.57;3.58;;;;;;;;;;10729617;26;20009;-70
2024/04/10 17:17:24;;;;;;;7.95;4.07;;;;;;;;;;10967244;25;20369;-71
2024/04/10 17:22:17;;;;;;;5.22;4.45;;;;;;;;;;10884179;26;20026;-72
2024/04/10 17:27:12;;;;;;;6.30;4.25;;;;;;;;;;10897839;26;20014;-72
2024/04/10 17:32:07;;;;;;;6.53;5.13;;;;;;;;;;10893315;26;20011;-74
2024/04/10 17:37:00;;;;;;;6.72;4.88;;;;;;;;;;10903252;26;20395;-73
2024/04/10 17:41:54;;;;;;;6.93;4.65;;;;;;;;;;10890715;26;20022;-72
2024/04/10 17:46:49;;;;;;;4.90;4.35;;;;;;;;;;10914504;26;20322;-73
2024/04/10 17:51:43;;;;;;;4.50;4.10;;;;;;;;;;10895314;26;20418;-73
2024/04/10 17:56:38;;;;;;;7.50;5.68;;;;;;;;;;10898997;26;20092;-72
2024/04/10 18:01:32;;;;;;;6.22;5.53;;;;;;;;;;10890090;26;20407;-72
2024/04/10 18:06:27;;;;;;;6.10;5.40;;;;;;;;;;10891794;26;20014;-71
2024/04/10 18:11:21;;;;;;;5.35;4.85;;;;;;;;;;10918847;26;20337;-72
2024/04/10 18:16:16;;;;;;;6.20;4.65;;;;;;;;;;10890059;25;20017;-72
2024/04/10 18:21:10;;;;;;;7.90;6.40;;;;;;;;;;10890333;26;20076;-67
2024/04/10 18:26:09;;;;;;;7.50;6.53;;;;;;;;;;10883921;26;20450;-68
2024/04/10 18:31:05;;;;;;;6.90;6.20;;;;;;;;;;10862211;26;20003;-67
2024/04/10 18:36:00;;;;;;;6.57;6.00;;;;;;;;;;10854493;26;20000;-68
2024/04/10 18:40:56;;;;;;;6.32;5.82;;;;;;;;;;10869095;26;20034;-65
2024/04/10 18:45:57;;;;;;;11.50;9.40;;;;;;;;;;10867859;26;20003;-68
2024/04/10 18:50:53;;;;;;;7.95;7.25;;;;;;;;;;10859000;26;20030;-67
2024/04/10 18:55:58;;;;;;;7.18;6.57;;;;;;;;;;10864141;26;20451;-67
2024/04/10 19:00:59;;;;;;;10.45;7.50;;;;;;;;;;10848117;26;20401;-66
2024/04/10 19:05:55;;;;;;;7.38;6.72;;;;;;;;;;10869695;26;20080;-68
2024/04/10 19:10:50;;;;;;;8.23;6.90;;;;;;;;;;10871026;26;20006;-67
2024/04/10 19:15:48;;;;;;;8.75;7.90;;;;;;;;;;10878070;26;20010;-67
2024/04/10 19:20:47;;;;;;;8.90;8.07;;;;;;;;;;10858364;26;20003;-68
2024/04/10 19:25:40;;;;;;;;;;;;;;;;;;10868882;26;20013;-68
2024/04/10 19:30:35;;;;;;;8.40;7.57;;;;;;;;;;10904015;26;19993;-68
2024/04/10 19:35:27;;;;;;;8.38;7.68;;;;;;;;;;10902623;26;19999;-67
2024/04/10 19:40:22;;;;;;;10.07;7.03;;;;;;;;;;10890988;26;20085;-66
2024/04/10 19:45:16;;;;;;;9.52;5.50;;;;;;;;;;10894164;26;20014;-67
2024/04/10 19:50:11;;;;;;;6.13;5.60;;;;;;;;;;10899024;26;20146;-68
2024/04/10 19:55:06;;;;;;;7.90;6.72;;;;;;;;;;10907456;26;20003;-68
2024/04/10 20:00:00;;;;;;;8.20;6.28;;;;;;;;;;10907465;26;20003;-66
2024/04/10 20:05:10;;;;;;;7.68;6.18;;;;;;;;;;10907570;26;20336;-68
2024/04/10 20:10:05;;;;;;;8.55;7.75;;;;;;;;;;10907114;26;20013;-68
2024/04/10 20:14:59;;;;;;;9.23;8.40;;;;;;;;;;10928205;26;20003;-69
2024/04/10 20:19:53;;;;;;;8.05;6.88;;;;;;;;;;10907318;26;20549;-67
2024/04/10 20:24:48;;;;;;;8.52;7.82;;;;;;;;;;10893914;26;20036;-67
2024/04/10 20:29:42;;;;;;;10.40;8.40;;;;;;;;;;10867643;26;20127;-66
2024/04/10 20:34:36;;;;;;;12.00;8.48;;;;;;;;;;10901293;26;20003;-66
2024/04/10 20:39:32;;;;;;;8.50;7.70;;;;;;;;;;10884295;26;20003;-67
2024/04/10 20:44:27;;;;;;;9.27;8.15;;;;;;;;;;10904449;26;20019;-67
2024/04/10 20:49:21;;;;;;;8.35;7.60;;;;;;;;;;10901730;26;20034;-66
2024/04/10 20:54:18;;;;;;;11.10;8.05;;;;;;;;;;10892662;26;19998;-65
2024/04/10 20:59:12;;;;;;;8.45;7.75;;;;;;;;;;10905475;26;20483;-67
2024/04/10 21:04:05;;;;;;;9.20;8.13;;;;;;;;;;10905425;26;20010;-67
2024/04/10 22:11:32;;;;;;;9.93;9.02;;;;;;;;;;10921939;26;20002;-65
2024/04/10 22:16:29;;;;;;;10.38;9.45;;;;;;;;;;10913767;26;20012;-66
2024/04/10 22:26:37;;;;;;;11.23;10.10;;;;;;;;;;10899248;26;20035;-67
2024/04/10 22:31:31;;;;;;;10.35;9.35;;;;;;;;;;10910045;26;20332;-67
2024/04/10 22:36:26;;;;;;;10.68;9.73;;;;;;;;;;10860723;26;19996;-66
2024/04/10 22:41:20;;;;;;;8.93;8.13;;;;;;;;;;10864239;26;20017;-67
2024/04/10 22:46:14;;;;;;;9.73;7.82;;;;;;;;;;10878105;26;20034;-67
2024/04/10 22:51:08;;;;;;;8.73;7.93;;;;;;;;;;10854600;26;20003;-66
2024/04/10 22:56:01;;;;;;;9.23;6.95;;;;;;;;;;10867691;26;20309;-66
2024/04/10 23:00:55;;;;;;;8.65;7.72;;;;;;;;;;10864735;26;20018;-66
2024/04/10 23:05:50;;;;;;;8.35;7.13;;;;;;;;;;10856466;26;20007;-68
2024/04/10 23:10:54;;;;;;;8.57;7.25;;;;;;;;;;10859411;26;20034;-67
2024/04/10 23:15:48;;;;;;;8.10;7.32;;;;;;;;;;10863031;26;20797;-67
2024/04/10 23:20:44;;;;;;;8.05;7.25;;;;;;;;;;10872812;26;20003;-66
2024/04/10 23:25:37;;;;;;;9.85;8.02;;;;;;;;;;10871607;26;21800;-66
2024/04/10 23:30:31;;;;;;;8.45;7.63;;;;;;;;;;10870362;26;20320;-66
2024/04/10 23:35:36;;;;;;;8.60;7.03;;;;;;;;;;10855536;26;20083;-68
2024/04/10 23:40:30;;;;;;;9.88;7.72;;;;;;;;;;10866568;26;20003;-65
2024/04/10 23:45:26;;;;;;;8.73;7.82;;;;;;;;;;10878728;26;20002;-68
2024/04/10 23:50:20;;;;;;;8.45;7.32;;;;;;;;;;10871748;26;20373;-67
2024/04/10 23:55:15;;;;;;;10.95;8.80;;;;;;;;;;10862798;26;20085;-66
